Time;durP1;ratioP1;P1;durP2;ratioP2;P2;SDS_P1;SDS_P2;PMS_P1;PMS_P2;Temp;Humidity;BMP_temperature;BMP_pressure;BME280_temperature;BME280_humidity;BME280_pressure;Samples;Min_cycle;Max_cycle;Signal;HPM_P1;HPM_P2
2023/03/04 00:02:38;;;;;;;11.17;8.97;;;;;;;6.48;44.59;98372.81;8416650;28;20224;-67
2023/03/04 00:06:41;;;;;;;10.97;9.17;;;;;;;6.44;44.69;98378.00;8416510;28;20247;-67
2023/03/04 00:10:43;;;;;;;11.63;9.30;;;;;;;6.25;44.90;98381.84;8415853;28;20227;-67
2023/03/04 00:14:46;;;;;;;11.33;9.20;;;;;;;6.29;44.88;98375.75;8416174;28;20228;-67
2023/03/04 00:18:51;;;;;;;11.47;8.47;;;;;;;6.41;44.43;98370.34;8416030;28;20223;-68
2023/03/04 00:22:54;;;;;;;11.63;9.07;;;;;;;6.11;44.52;98350.41;8415797;28;20212;-68
2023/03/04 00:26:56;;;;;;;11.40;9.10;;;;;;;6.17;44.65;98369.16;8415710;28;20440;-67
2023/03/04 00:30:59;;;;;;;10.65;9.65;;;;;;;6.61;43.67;98379.38;8414724;28;20592;-67
2023/03/04 00:35:04;;;;;;;11.17;8.93;;;;;;;6.19;44.68;98377.66;8415556;28;20227;-66
2023/03/04 00:39:07;;;;;;;10.70;8.87;;;;;;;6.19;44.66;98382.81;8415055;28;20228;-66
2023/03/04 00:43:09;;;;;;;11.90;9.17;;;;;;;6.11;44.60;98386.41;8415252;28;20228;-66
2023/03/04 00:47:12;;;;;;;11.73;9.60;;;;;;;5.96;44.64;98379.81;8415100;28;20229;-66
2023/03/04 00:51:16;;;;;;;12.50;9.83;;;;;;;5.99;44.64;98377.22;8414590;28;20220;-66
2023/03/04 00:55:20;;;;;;;11.00;8.80;;;;;;;5.93;44.91;98380.72;8414752;28;20239;-67
2023/03/04 00:59:23;;;;;;;13.37;9.60;;;;;;;5.90;44.69;98387.63;8414719;28;20227;-66
2023/03/04 01:03:30;;;;;;;12.20;9.43;;;;;;;5.85;44.60;98393.72;8414396;28;20228;-66
2023/03/04 01:07:34;;;;;;;12.97;9.73;;;;;;;5.81;44.87;98380.97;8414205;28;20227;-67
2023/03/04 01:11:36;;;;;;;12.43;9.23;;;;;;;5.70;44.74;98373.44;8414228;28;20234;-66
2023/03/04 01:15:39;;;;;;;10.67;9.17;;;;;;;5.80;44.67;98376.69;8414092;28;20242;-66
2023/03/04 01:19:42;;;;;;;11.17;8.87;;;;;;;5.78;44.47;98373.28;8413450;28;20526;-67
2023/03/04 01:23:46;;;;;;;11.63;8.63;;;;;;;5.68;44.84;98368.31;8413514;28;20220;-67
2023/03/04 01:27:49;;;;;;;9.80;8.37;;;;;;;5.65;44.59;98373.53;8413663;28;20405;-66
2023/03/04 01:31:52;;;;;;;9.83;8.13;;;;;;;5.48;45.00;98372.94;8413678;28;20224;-67
2023/03/04 01:35:54;;;;;;;10.03;8.63;;;;;;;5.63;45.00;98364.97;8413305;28;20558;-67
2023/03/04 01:39:59;;;;;;;9.37;8.20;;;;;;;5.57;45.05;98359.94;8413438;28;20231;-67
2023/03/04 01:44:02;;;;;;;9.47;7.83;;;;;;;5.58;44.61;98358.22;8413276;28;20511;-67
2023/03/04 01:48:08;;;;;;;8.83;7.53;;;;;;;5.33;45.66;98358.69;8412885;28;20232;-67
2023/03/04 01:52:12;;;;;;;9.17;7.43;;;;;;;5.41;45.31;98354.25;8412928;28;20507;-67
2023/03/04 01:56:23;;;;;;;9.00;7.40;;;;;;;5.43;45.17;98347.38;8412729;28;20221;-67
2023/03/04 02:00:30;;;;;;;7.97;6.93;;;;;;;5.36;45.28;98356.03;8413001;28;20469;-67
2023/03/04 02:04:33;;;;;;;9.00;7.50;;;;;;;5.28;45.68;98343.34;8412734;28;20322;-67
2023/03/04 02:08:37;;;;;;;8.37;7.43;;;;;;;5.36;45.52;98343.19;8412869;28;20232;-67
2023/03/04 02:12:41;;;;;;;8.93;8.00;;;;;;;5.39;45.42;98348.28;8412626;28;20239;-66
2023/03/04 02:16:44;;;;;;;9.67;7.63;;;;;;;5.35;45.70;98346.66;8411556;28;20220;-67
2023/03/04 02:20:56;;;;;;;9.20;7.60;;;;;;;5.46;45.63;98342.19;8412396;28;20293;-67
2023/03/04 02:25:01;;;;;;;8.53;7.30;;;;;;;5.33;45.48;98334.69;8412426;28;20248;-67
2023/03/04 02:29:05;;;;;;;8.43;7.17;;;;;;;5.19;45.87;98328.06;8412253;28;20225;-67
2023/03/04 02:33:14;;;;;;;9.13;7.60;;;;;;;5.18;45.68;98317.81;8412436;28;20227;-67
2023/03/04 02:37:18;;;;;;;12.97;8.03;;;;;;;5.25;45.77;98333.13;8412295;28;20252;-66
2023/03/04 02:41:23;;;;;;;9.53;8.53;;;;;;;5.13;46.24;98322.22;8412217;28;20220;-66
2023/03/04 02:45:42;;;;;;;9.60;8.23;;;;;;;5.20;46.11;98324.66;8411710;28;20251;-66
2023/03/04 02:49:45;;;;;;;9.57;8.57;;;;;;;5.32;45.87;98322.75;8411135;28;20227;-66
2023/03/04 02:53:48;;;;;;;10.00;8.63;;;;;;;5.18;46.37;98315.25;8411571;28;20236;-66
2023/03/04 02:57:50;;;;;;;9.07;8.13;;;;;;;5.04;46.43;98315.50;8411670;28;20234;-66
2023/03/04 03:01:54;;;;;;;11.07;9.40;;;;;;;5.00;46.86;98314.69;8411811;28;20236;-67
2023/03/04 03:05:57;;;;;;;11.40;9.53;;;;;;;5.08;46.79;98310.31;8411379;28;20544;-66
2023/03/04 03:10:00;;;;;;;12.00;9.93;;;;;;;4.67;47.97;98300.69;8411757;28;20242;-66
2023/03/04 03:14:03;;;;;;;12.03;9.30;;;;;;;4.98;47.62;98302.78;8411501;28;20228;-66
2023/03/04 03:18:07;;;;;;;13.50;10.60;;;;;;;4.93;47.62;98314.81;8411586;28;20244;-66
2023/03/04 03:22:10;;;;;;;13.10;9.63;;;;;;;4.87;48.29;98316.63;8411362;28;20252;-67
2023/03/04 03:26:16;;;;;;;14.57;10.27;;;;;;;5.11;47.79;98306.81;8411276;28;20224;-67
2023/03/04 03:30:19;;;;;;;11.47;9.13;;;;;;;5.00;48.53;98308.72;8417045;28;20310;-68
2023/03/04 03:34:23;;;;;;;13.53;10.00;;;;;;;5.11;48.23;98311.13;8417266;28;20227;-67
2023/03/04 03:38:26;;;;;;;12.07;9.37;;;;;;;5.23;48.21;98308.34;8417151;28;20224;-67
2023/03/04 03:42:29;;;;;;;11.17;9.47;;;;;;;5.08;48.61;98310.31;8417196;28;20228;-67
2023/03/04 03:46:31;;;;;;;12.80;9.47;;;;;;;4.82;48.15;98244.00;8417033;28;20236;-67
2023/03/04 03:50:36;;;;;;;11.57;9.17;;;;;;;5.09;48.79;98316.28;8416786;28;20262;-67
2023/03/04 03:54:39;;;;;;;13.30;10.07;;;;;;;4.95;49.67;98311.38;8416650;28;20563;-67
2023/03/04 03:58:41;;;;;;;13.73;10.60;;;;;;;5.06;48.91;98324.00;8416260;28;20223;-67
2023/03/04 04:02:44;;;;;;;13.63;10.33;;;;;;;5.16;49.60;98323.00;8416365;28;20232;-67
2023/03/04 04:06:49;;;;;;;14.37;10.37;;;;;;;5.09;49.28;98316.28;8416241;28;20228;-67
2023/03/04 04:10:52;;;;;;;14.43;10.77;;;;;;;5.21;49.42;98312.66;8416109;28;20228;-67
2023/03/04 04:14:55;;;;;;;13.27;9.97;;;;;;;5.26;49.45;98336.53;8415980;28;20224;-67
2023/03/04 04:18:58;;;;;;;13.63;10.07;;;;;;;5.33;49.41;98342.41;8415958;28;20224;-67
2023/03/04 04:23:03;;;;;;;13.80;9.80;;;;;;;5.22;49.40;98338.31;8415921;28;20252;-67
2023/03/04 04:27:06;;;;;;;11.97;9.83;;;;;;;5.07;50.38;98338.56;8415661;28;20528;-67
2023/03/04 04:31:09;;;;;;;10.23;8.60;;;;;;;5.28;49.98;98342.50;8415843;28;20297;-67
2023/03/04 04:35:12;;;;;;;13.60;10.03;;;;;;;5.35;49.66;98333.81;8415306;28;20544;-67
2023/03/04 04:39:17;;;;;;;11.87;9.57;;;;;;;5.49;49.58;98342.09;8414521;28;20224;-67
2023/03/04 04:43:20;;;;;;;12.87;10.43;;;;;;;5.17;50.37;98340.09;8414951;28;20221;-67
2023/03/04 04:47:23;;;;;;;12.83;10.17;;;;;;;5.38;49.72;98341.44;8414736;28;20232;-67
2023/03/04 04:51:26;;;;;;;12.73;10.13;;;;;;;5.40;50.16;98342.25;8414667;28;20236;-68
2023/03/04 04:55:30;;;;;;;14.03;10.57;;;;;;;5.40;50.26;98342.25;8414590;28;20235;-67
2023/03/04 04:59:32;;;;;;;13.83;11.03;;;;;;;5.32;50.67;98346.69;8414732;28;20220;-68
2023/03/04 05:03:36;;;;;;;13.63;10.63;;;;;;;5.43;50.49;98346.53;8414362;28;20228;-67
2023/03/04 05:07:39;;;;;;;12.17;9.77;;;;;;;5.35;50.97;98344.09;8414003;28;20558;-67
2023/03/04 05:11:43;;;;;;;14.03;10.70;;;;;;;5.39;50.92;98347.47;8380576;28;20249;-68
2023/03/04 05:15:46;;;;;;;12.70;10.40;;;;;;;5.36;50.52;98342.34;8380805;28;20274;-67
2023/03/04 05:19:49;;;;;;;13.73;11.03;;;;;;;5.64;49.79;98335.84;8380862;28;20228;-67
2023/03/04 05:23:51;;;;;;;14.00;10.93;;;;;;;5.63;49.55;98334.13;8380719;28;20228;-67
2023/03/04 05:27:56;;;;;;;13.67;10.27;;;;;;;5.72;49.47;98342.56;8380484;28;20244;-67
2023/03/04 05:31:58;;;;;;;15.27;10.83;;;;;;;5.30;50.40;98333.03;8380445;28;20237;-68
2023/03/04 05:36:01;;;;;;;13.70;10.70;;;;;;;5.40;50.48;98342.25;8380097;28;20527;-67
2023/03/04 05:40:05;;;;;;;13.97;10.77;;;;;;;5.62;49.63;98335.03;8380323;28;20224;-67
2023/03/04 05:44:09;;;;;;;15.47;11.67;;;;;;;5.66;49.44;98334.09;8380218;28;20229;-67
2023/03/04 05:48:15;;;;;;;15.73;11.37;;;;;;;5.56;49.88;98347.13;8379601;28;20224;-67
2023/03/04 05:52:21;;;;;;;14.57;11.53;;;;;;;5.79;49.31;98337.28;8379804;28;20237;-67
2023/03/04 05:56:24;;;;;;;15.07;11.63;;;;;;;5.74;49.14;98341.66;8379980;28;20245;-66
2023/03/04 06:00:28;;;;;;;16.43;11.97;;;;;;;5.73;49.16;98333.97;8380021;28;20229;-67
2023/03/04 06:04:31;;;;;;;16.03;12.00;;;;;;;5.76;49.10;98344.22;8379340;28;20299;-67
2023/03/04 06:08:34;;;;;;;17.70;14.07;;;;;;;5.73;49.14;98344.25;8379103;28;20236;-67
2023/03/04 06:12:36;;;;;;;18.13;14.60;;;;;;;5.67;49.41;98342.63;8379002;28;20225;-67
2023/03/04 06:16:41;;;;;;;22.00;15.97;;;;;;;5.64;49.85;98355.56;8379725;28;20228;-68
2023/03/04 06:20:44;;;;;;;20.10;15.57;;;;;;;5.80;49.27;98348.41;8412073;28;20221;-67
2023/03/04 06:24:47;;;;;;;19.87;14.13;;;;;;;5.75;49.51;98351.06;8412430;28;20417;-67
2023/03/04 06:28:49;;;;;;;19.83;13.47;;;;;;;5.88;49.03;98359.38;8412248;28;20452;-67
2023/03/04 06:32:53;;;;;;;18.30;12.93;;;;;;;5.92;49.05;98361.03;8412005;28;20232;-67
2023/03/04 06:36:56;;;;;;;17.47;12.40;;;;;;;5.72;49.53;98370.84;8412178;28;20455;-67
2023/03/04 06:41:09;;;;;;;16.13;11.90;;;;;;;5.84;49.55;98368.03;8412435;28;20232;-68
2023/03/04 06:45:12;;;;;;;15.87;12.07;;;;;;;5.80;49.24;98353.53;8412055;28;20224;-67
2023/03/04 06:49:16;;;;;;;16.77;12.27;;;;;;;5.82;49.38;98372.34;8411716;28;20232;-67
2023/03/04 06:53:19;;;;;;;16.17;11.90;;;;;;;5.74;49.66;98369.09;8411792;28;20247;-68
2023/03/04 06:57:22;;;;;;;15.83;11.73;;;;;;;5.90;49.61;98379.91;8412015;28;20235;-67
2023/03/04 07:01:29;;;;;;;16.80;12.43;;;;;;;5.59;50.21;98383.91;8411917;28;20235;-67
2023/03/04 07:05:33;;;;;;;14.50;11.40;;;;;;;5.96;49.68;98390.97;8418192;28;20231;-68
2023/03/04 07:09:36;;;;;;;15.00;12.40;;;;;;;5.97;49.77;98390.09;8418320;28;20238;-67
2023/03/04 07:13:39;;;;;;;16.07;12.23;;;;;;;6.09;49.33;98393.31;8417950;28;20520;-67
2023/03/04 07:17:42;;;;;;;15.53;11.40;;;;;;;5.72;50.04;98404.25;8417776;28;20500;-67
2023/03/04 07:21:46;;;;;;;14.57;11.10;;;;;;;6.11;49.09;98399.25;8417794;28;20250;-67
2023/03/04 07:25:50;;;;;;;14.27;10.90;;;;;;;6.18;48.42;98408.56;8418063;28;20223;-67
2023/03/04 07:29:53;;;;;;;18.77;13.80;;;;;;;6.16;48.84;98411.16;8417404;28;20247;-67
2023/03/04 07:33:56;;;;;;;15.03;11.87;;;;;;;6.16;48.30;98405.16;8417480;28;20224;-67
2023/03/04 07:38:02;;;;;;;12.90;10.70;;;;;;;6.04;48.26;98411.41;8417384;28;20425;-69
2023/03/04 07:42:05;;;;;;;14.47;11.63;;;;;;;6.18;48.80;98409.41;8417346;28;20231;-67
2023/03/04 07:46:08;;;;;;;13.90;10.97;;;;;;;6.40;47.91;98404.69;8417182;28;20223;-67
2023/03/04 07:50:12;;;;;;;13.03;11.00;;;;;;;6.38;47.70;98411.59;8417030;28;20235;-67
2023/03/04 07:54:18;;;;;;;13.53;11.30;;;;;;;6.22;47.90;98410.19;8417054;28;20277;-67
2023/03/04 07:58:21;;;;;;;15.03;12.03;;;;;;;6.58;47.85;98413.72;8416830;28;20232;-68
2023/03/04 08:02:24;;;;;;;14.43;11.40;;;;;;;6.52;47.57;98411.28;8416551;28;20285;-68
2023/03/04 08:06:29;;;;;;;15.23;11.67;;;;;;;6.50;47.56;98404.50;8416337;28;20488;-68
2023/03/04 08:10:34;;;;;;;15.13;11.57;;;;;;;6.55;47.46;98411.25;8416516;28;20248;-69
2023/03/04 08:14:37;;;;;;;15.40;11.57;;;;;;;6.60;47.19;98406.81;8415088;28;20235;-69
2023/03/04 08:18:39;;;;;;;15.30;11.70;;;;;;;6.62;46.67;98405.06;8416118;28;20231;-68
2023/03/04 08:22:42;;;;;;;14.70;11.17;;;;;;;6.60;47.08;98403.41;8415228;28;20484;-67
2023/03/04 08:26:48;;;;;;;15.37;11.20;;;;;;;6.53;47.17;98407.84;8415935;28;20562;-69
2023/03/04 08:30:53;;;;;;;14.53;11.90;;;;;;;6.60;46.92;98390.53;8416213;28;20224;-68
2023/03/04 08:34:56;;;;;;;16.30;12.70;;;;;;;6.51;46.95;98395.88;8415703;28;20293;-67
2023/03/04 08:38:59;;;;;;;17.87;12.20;;;;;;;6.72;46.33;98400.59;8415360;28;20235;-68
2023/03/04 08:43:03;;;;;;;15.73;11.60;;;;;;;6.82;46.58;98399.50;8415302;28;20240;-68
2023/03/04 08:47:08;;;;;;;15.10;12.40;;;;;;;6.83;46.33;98400.34;8414972;28;20228;-68
2023/03/04 08:51:13;;;;;;;16.37;12.87;;;;;;;6.88;46.09;98408.81;8414677;28;20232;-69
2023/03/04 08:55:16;;;;;;;14.30;11.83;;;;;;;7.00;45.99;98408.53;8415109;28;20546;-69
2023/03/04 08:59:20;;;;;;;16.47;12.17;;;;;;;6.63;46.05;98401.63;8414902;28;20236;-68
2023/03/04 09:03:23;;;;;;;15.17;12.17;;;;;;;6.92;45.86;98409.59;8414563;28;20405;-68
2023/03/04 09:07:25;;;;;;;15.53;12.03;;;;;;;6.94;45.84;98411.25;8414302;28;20228;-68
2023/03/04 09:11:28;;;;;;;14.70;12.27;;;;;;;6.87;46.41;98407.09;8414219;28;20224;-68
2023/03/04 09:15:34;;;;;;;16.53;12.20;;;;;;;6.92;45.65;98414.75;8414191;28;20283;-68
2023/03/04 09:19:37;;;;;;;16.17;12.53;;;;;;;7.12;45.67;98414.28;8414003;28;20407;-67
2023/03/04 09:23:40;;;;;;;15.60;11.97;;;;;;;7.23;45.24;98415.75;8413887;28;20231;-67
2023/03/04 09:27:43;;;;;;;14.60;12.00;;;;;;;7.12;45.89;98422.88;8412947;28;20246;-67
2023/03/04 09:31:47;;;;;;;17.30;12.20;;;;;;;7.11;45.46;98421.16;8413597;28;20294;-67
2023/03/04 09:35:50;;;;;;;15.63;12.33;;;;;;;7.27;45.72;98428.53;8413330;28;20224;-67
2023/03/04 09:39:53;;;;;;;17.73;12.57;;;;;;;7.19;45.46;98419.25;8413582;28;20254;-68
2023/03/04 09:43:57;;;;;;;17.77;13.00;;;;;;;7.42;45.14;98412.69;8413398;28;20227;-67
2023/03/04 09:48:01;;;;;;;16.73;12.17;;;;;;;7.57;45.07;98421.78;8413341;28;20544;-68
2023/03/04 09:52:10;;;;;;;17.73;12.80;;;;;;;7.51;45.20;98427.94;8412650;28;20476;-68
2023/03/04 09:56:13;;;;;;;13.63;11.53;;;;;;;7.17;45.38;98422.75;8412888;28;20440;-67
2023/03/04 10:00:18;;;;;;;16.43;11.67;;;;;;;7.47;44.56;98420.34;8412886;28;20315;-67
2023/03/04 10:04:31;;;;;;;14.87;11.80;;;;;;;7.41;44.60;98418.75;8412615;28;20480;-68
2023/03/04 10:08:38;;;;;;;13.83;11.27;;;;;;;7.36;45.14;98416.28;8412481;28;20266;-68
2023/03/04 10:12:44;;;;;;;14.93;11.40;;;;;;;6.88;44.99;98393.38;8412595;28;20228;-69
2023/03/04 10:16:49;;;;;;;12.20;10.47;;;;;;;7.35;44.01;98398.25;8411592;28;20224;-68
2023/03/04 10:20:58;;;;;;;14.63;12.10;;;;;;;7.66;43.49;98407.84;8412382;28;20224;-69
2023/03/04 10:25:14;;;;;;;16.63;11.23;;;;;;;7.82;43.38;98411.69;8412206;28;20228;-67
2023/03/04 10:29:19;;;;;;;15.43;11.70;;;;;;;7.83;43.41;98405.66;8412188;28;20228;-67
2023/03/04 10:33:25;;;;;;;20.67;12.17;;;;;;;7.47;43.54;98389.41;8411980;28;20426;-68
2023/03/04 10:42:00;;;;;;;14.33;10.63;;;;;;;7.89;42.39;98405.50;8460573;27;20584;-69
2023/03/04 10:46:04;;;;;;;18.30;11.83;;;;;;;7.90;42.50;98394.31;8441121;28;20236;-69
2023/03/04 10:50:13;;;;;;;16.27;12.30;;;;;;;8.03;42.76;98394.78;8441170;28;20220;-69
2023/03/04 10:54:25;;;;;;;19.33;11.33;;;;;;;7.84;42.04;98389.28;8440767;28;20238;-68
2023/03/04 10:58:29;;;;;;;14.70;10.93;;;;;;;7.85;42.31;98390.16;8440781;28;20238;-68
2023/03/04 11:02:34;;;;;;;12.23;8.47;;;;;;;10.32;65.75;98403.13;8440385;28;20234;-67
2023/03/04 11:06:42;;;;;;;14.37;8.73;;;;;;;11.20;50.12;98402.38;8440433;28;20433;-67
2023/03/04 11:10:45;;;;;;;13.47;10.80;;;;;;;10.43;40.16;98386.34;8473720;28;20238;-68
2023/03/04 11:14:50;;;;;;;13.97;11.80;;;;;;;9.17;40.62;98394.06;8473722;28;20248;-69
2023/03/04 11:18:55;;;;;;;16.53;11.00;;;;;;;9.13;40.75;98401.06;8473130;28;20231;-67
2023/03/04 11:23:02;;;;;;;12.30;11.00;;;;;;;8.94;40.76;98390.47;8472989;28;20416;-68
2023/03/04 11:27:10;;;;;;;14.63;10.87;;;;;;;8.55;41.59;98389.97;8473425;28;20219;-68
2023/03/04 11:31:16;;;;;;;15.13;11.03;;;;;;;8.43;41.89;98392.88;8473333;28;20503;-68
2023/03/04 11:35:23;;;;;;;13.00;11.37;;;;;;;8.51;41.68;98385.75;8472961;28;20226;-69
2023/03/04 11:39:31;;;;;;;13.10;10.80;;;;;;;8.66;41.95;98381.88;8472874;28;20231;-68
2023/03/04 11:43:39;;;;;;;15.60;11.47;;;;;;;8.24;42.42;98383.03;8472763;28;20223;-68
2023/03/04 11:47:50;;;;;;;19.27;10.07;;;;;;;8.49;41.57;98365.16;8471740;28;20250;-68
2023/03/04 11:51:58;;;;;;;13.57;11.00;;;;;;;7.88;42.06;98365.13;8457685;28;20334;-68
2023/03/04 11:56:22;;;;;;;16.80;10.30;;;;;;;7.98;41.21;98366.56;8449875;28;20247;-68
2023/03/04 12:00:35;;;;;;;11.23;9.03;;;;;;;8.28;41.72;98360.56;8449650;28;20284;-68
2023/03/04 12:04:50;;;;;;;13.53;10.43;;;;;;;8.25;41.14;98350.38;8449522;28;20236;-68
2023/03/04 12:09:00;;;;;;;12.17;9.90;;;;;;;8.18;41.27;98339.34;8415616;28;20560;-69
2023/03/04 12:13:25;;;;;;;13.13;9.00;;;;;;;8.16;40.92;98326.50;8415917;28;20232;-69
2023/03/04 12:17:37;;;;;;;15.43;10.80;;;;;;;8.02;43.24;98328.63;8400282;28;20285;-69
2023/03/04 12:22:05;;;;;;;11.40;8.67;;;;;;;8.36;41.65;98327.66;8415446;28;20228;-69
2023/03/04 12:26:12;;;;;;;12.17;9.43;;;;;;;8.06;41.42;98321.66;8415277;28;20224;-69
2023/03/04 12:30:20;;;;;;;14.37;8.53;;;;;;;8.37;41.24;98314.69;8415252;28;20231;-69
2023/03/04 12:34:52;;;;;;;15.13;9.33;;;;;;;8.46;41.56;98313.63;8414910;28;20224;-69
2023/03/04 12:39:19;;;;;;;12.20;9.93;;;;;;;8.41;41.62;98310.28;8431620;28;20227;-68
2023/03/04 12:43:40;;;;;;;16.40;10.43;;;;;;;8.35;41.32;98288.09;8448298;28;20241;-68
2023/03/04 12:47:50;;;;;;;47.03;11.83;;;;;;;8.54;42.38;98314.22;8447695;28;20228;-69
2023/03/04 12:52:01;;;;;;;14.93;9.90;;;;;;;8.55;41.81;98308.19;8447969;28;20542;-68
2023/03/04 12:56:06;;;;;;;14.60;10.37;;;;;;;8.52;42.69;98304.84;8447859;28;20220;-68
2023/03/04 13:00:32;;;;;;;14.47;10.33;;;;;;;8.57;42.42;98308.16;8447825;28;20290;-68
2023/03/04 13:04:46;;;;;;;18.33;11.00;;;;;;;8.64;42.44;98313.94;8446541;28;20276;-68
2023/03/04 13:08:56;;;;;;;14.63;10.90;;;;;;;8.66;43.35;98305.25;8447190;28;20388;-69
2023/03/04 13:13:01;;;;;;;16.97;10.30;;;;;;;8.52;42.76;98300.53;8447364;28;20235;-69
2023/03/04 13:17:38;;;;;;;13.93;10.20;;;;;;;8.41;43.13;98293.13;8447223;28;20219;-68
2023/03/04 13:21:46;;;;;;;13.70;10.77;;;;;;;8.41;43.49;98287.97;8410709;28;20236;-69
2023/03/04 13:25:50;;;;;;;15.43;10.43;;;;;;;8.49;43.32;98290.31;8413447;28;20235;-69
2023/03/04 13:29:54;;;;;;;16.23;10.10;;;;;;;8.55;43.28;98287.53;8413473;28;20224;-68
2023/03/04 13:34:00;;;;;;;13.87;9.57;;;;;;;8.17;44.20;98248.22;8412798;28;20551;-68
2023/03/04 13:38:03;;;;;;;20.93;9.80;;;;;;;8.34;44.18;98281.25;8412700;28;20224;-68
2023/03/04 13:42:38;;;;;;;41.17;24.10;;;;;;;9.57;58.85;98279.00;8412815;28;20228;-68
2023/03/04 13:46:43;;;;;;;24.00;14.80;;;;;;;8.82;44.14;98269.47;8412698;28;20232;-68
2023/03/04 13:50:46;;;;;;;16.97;10.23;;;;;;;8.57;43.96;98269.41;8420999;28;20220;-69
2023/03/04 13:54:49;;;;;;;19.80;11.77;;;;;;;8.30;44.47;98269.34;8412553;28;20422;-69
2023/03/04 13:58:53;;;;;;;14.03;9.30;;;;;;;8.10;44.58;98251.03;8412631;28;20227;-69
2023/03/04 14:03:12;;;;;;;15.47;9.73;;;;;;;8.45;44.04;98257.72;8412324;28;20228;-68
2023/03/04 14:07:21;;;;;;;16.07;10.03;;;;;;;8.48;44.23;98262.78;8412480;28;20228;-68
2023/03/04 14:11:30;;;;;;;16.07;10.93;;;;;;;8.29;44.27;98231.53;8412661;28;20480;-69
2023/03/04 14:15:34;;;;;;;13.87;9.63;;;;;;;8.23;44.90;98252.34;8412262;28;20587;-69
2023/03/04 14:19:44;;;;;;;14.87;9.70;;;;;;;8.43;44.38;98244.00;8412173;28;20228;-69
2023/03/04 14:23:47;;;;;;;15.77;9.10;;;;;;;8.45;44.27;98243.97;8411862;28;20227;-69
2023/03/04 14:27:50;;;;;;;12.07;8.57;;;;;;;8.58;44.06;98245.28;8412067;28;20430;-69
2023/03/04 14:31:54;;;;;;;14.47;9.60;;;;;;;8.48;44.30;98243.88;8411733;28;20421;-69
2023/03/04 14:36:00;;;;;;;13.20;8.97;;;;;;;8.08;44.87;98229.59;8411895;28;20246;-69
2023/03/04 14:40:05;;;;;;;15.10;9.10;;;;;;;8.44;44.62;98226.81;8411662;28;20232;-70
2023/03/04 14:44:12;;;;;;;13.80;9.50;;;;;;;8.39;44.32;98227.75;8411978;28;20219;-69
2023/03/04 14:48:20;;;;;;;21.07;12.67;;;;;;;8.17;44.24;98188.06;8411744;28;20235;-69
2023/03/04 14:52:33;;;;;;;15.23;9.30;;;;;;;8.27;44.47;98215.25;8411649;28;20239;-69
2023/03/04 14:56:36;;;;;;;13.30;8.40;;;;;;;7.93;44.90;98187.06;8411464;28;20236;-68
2023/03/04 15:00:40;;;;;;;12.43;9.23;;;;;;;8.18;45.25;98206.03;8411325;28;20410;-69
2023/03/04 15:04:43;;;;;;;12.67;8.80;;;;;;;8.35;44.95;98202.09;8410687;28;20221;-69
2023/03/04 15:08:47;;;;;;;13.20;8.90;;;;;;;8.30;44.40;98189.34;8411366;28;20234;-68
2023/03/04 15:12:55;;;;;;;14.93;9.27;;;;;;;8.29;43.95;98187.66;8411333;28;20235;-68
2023/03/04 15:16:58;;;;;;;14.40;8.57;;;;;;;7.95;44.94;98180.94;8411083;28;20327;-68
2023/03/04 15:21:02;;;;;;;17.13;8.97;;;;;;;8.19;44.15;98191.44;8410986;28;20236;-69
2023/03/04 15:25:07;;;;;;;15.00;9.00;;;;;;;8.06;44.89;98201.28;8411470;28;20299;-69
2023/03/04 15:29:13;;;;;;;13.50;8.13;;;;;;;8.19;45.01;98200.00;8417484;28;20228;-70
2023/03/04 15:33:16;;;;;;;21.93;14.70;;;;;;;8.03;45.03;98198.78;8417004;28;20247;-69
2023/03/04 15:37:26;;;;;;;15.77;10.23;;;;;;;7.85;45.23;98199.34;8417104;28;20230;-69
2023/03/04 15:41:30;;;;;;;14.37;9.00;;;;;;;8.03;44.88;98198.78;8416654;28;20293;-69
2023/03/04 15:45:35;;;;;;;16.03;8.47;;;;;;;8.34;44.43;98190.94;8416712;28;20224;-70
2023/03/04 15:49:39;;;;;;;17.67;9.50;;;;;;;7.92;45.36;98187.94;8417064;28;20547;-69
2023/03/04 15:53:44;;;;;;;16.50;9.13;;;;;;;8.14;44.90;98190.72;8416196;28;20228;-68
2023/03/04 15:57:51;;;;;;;14.47;8.90;;;;;;;7.84;45.80;98185.59;8416518;28;20224;-69
2023/03/04 16:01:54;;;;;;;17.17;10.70;;;;;;;8.10;44.93;98184.81;8416489;28;20243;-69
2023/03/04 16:05:58;;;;;;;18.60;10.60;;;;;;;7.70;44.88;98098.34;8416221;28;20243;-69
2023/03/04 16:10:05;;;;;;;19.83;10.87;;;;;;;8.18;45.11;98177.66;8416246;28;20235;-69
2023/03/04 16:14:11;;;;;;;22.40;9.70;;;;;;;7.85;45.88;98166.66;8416017;28;20232;-69
2023/03/04 16:18:15;;;;;;;16.20;9.20;;;;;;;8.14;45.16;98170.06;8415831;28;20223;-70
2023/03/04 16:22:21;;;;;;;14.73;8.70;;;;;;;8.02;45.80;98171.31;8415741;28;20239;-70
2023/03/04 16:26:24;;;;;;;11.10;7.50;;;;;;;8.23;45.32;98174.94;8415804;28;20235;-67
2023/03/04 16:30:29;;;;;;;17.50;7.47;;;;;;;7.87;46.28;98167.47;8415401;28;20539;-69
2023/03/04 16:34:31;;;;;;;16.30;8.17;;;;;;;7.88;45.99;98160.56;8415407;28;20224;-69
2023/03/04 16:38:34;;;;;;;13.60;8.73;;;;;;;7.84;46.47;98167.53;8415215;28;20311;-68
2023/03/04 16:42:37;;;;;;;16.07;8.50;;;;;;;8.08;45.92;98167.69;8415407;28;20232;-69
2023/03/04 16:46:42;;;;;;;13.87;7.87;;;;;;;8.01;45.92;98172.19;8414951;28;20273;-69
2023/03/04 16:50:44;;;;;;;13.57;8.00;;;;;;;7.97;46.24;98173.16;8448060;28;20520;-70
2023/03/04 16:54:47;;;;;;;14.63;8.73;;;;;;;8.37;45.43;98177.09;8447437;28;20582;-70
2023/03/04 16:58:52;;;;;;;15.83;10.20;;;;;;;8.00;46.25;98178.25;8448428;28;20452;-67
2023/03/04 17:02:58;;;;;;;15.13;9.07;;;;;;;7.89;46.49;98175.16;8447475;28;20239;-67
2023/03/04 17:07:01;;;;;;;15.87;7.90;;;;;;;7.90;46.68;98177.69;8447218;28;20538;-68
2023/03/04 17:11:04;;;;;;;13.77;8.70;;;;;;;8.08;46.23;98180.59;8447190;28;20459;-68
2023/03/04 17:15:07;;;;;;;15.93;8.07;;;;;;;8.00;46.29;98179.09;8447713;28;20219;-68
2023/03/04 17:19:12;;;;;;;13.90;7.97;;;;;;;7.75;46.77;98167.81;8447264;28;20645;-68
2023/03/04 17:23:15;;;;;;;15.13;7.87;;;;;;;7.84;46.53;98172.69;8447012;28;20236;-68
2023/03/04 17:27:17;;;;;;;15.10;7.07;;;;;;;8.09;46.12;98171.94;8446865;28;20231;-68
2023/03/04 17:31:20;;;;;;;11.63;7.57;;;;;;;7.76;46.50;98170.34;8447032;28;20235;-67
2023/03/04 17:35:25;;;;;;;14.07;7.40;;;;;;;8.03;46.16;98178.13;8446590;28;20454;-68
2023/03/04 17:39:28;;;;;;;14.32;8.25;;;;;;;8.27;45.65;98192.03;8446031;28;20413;-68
2023/03/04 17:43:31;;;;;;;15.33;7.83;;;;;;;8.12;45.97;98192.50;8446615;28;20235;-68
2023/03/04 17:47:33;;;;;;;13.80;7.53;;;;;;;7.95;46.18;98186.09;8446292;28;20250;-68
2023/03/04 17:51:41;;;;;;;14.80;7.13;;;;;;;7.73;46.86;98192.78;8446053;28;20557;-67
2023/03/04 17:55:49;;;;;;;12.23;7.90;;;;;;;7.83;46.27;98182.16;8445986;28;20238;-68
2023/03/04 17:59:51;;;;;;;14.13;8.50;;;;;;;7.73;47.05;98185.06;8446246;28;20234;-67
2023/03/04 18:03:54;;;;;;;14.27;8.57;;;;;;;7.80;46.86;98187.41;8446126;28;20234;-68
2023/03/04 18:07:58;;;;;;;13.73;7.97;;;;;;;8.00;46.54;98186.81;8445900;28;20419;-68
2023/03/04 18:12:01;;;;;;;15.20;7.83;;;;;;;7.86;46.85;98181.22;8445675;28;20254;-68
2023/03/04 18:16:05;;;;;;;13.27;7.00;;;;;;;7.70;47.26;98174.84;8445605;28;20226;-67
2023/03/04 18:20:09;;;;;;;11.50;7.13;;;;;;;7.58;47.23;98170.91;8445609;28;20418;-68
2023/03/04 18:24:13;;;;;;;12.53;7.70;;;;;;;7.52;47.69;98171.94;8445823;28;20511;-67
2023/03/04 18:28:16;;;;;;;12.40;7.10;;;;;;;7.44;47.74;98169.56;8445224;28;20223;-68
2023/03/04 18:32:19;;;;;;;13.37;8.13;;;;;;;7.48;47.51;98172.88;8445130;28;20239;-68
2023/03/04 18:36:22;;;;;;;11.07;7.23;;;;;;;7.53;47.17;98142.66;8445493;28;20230;-67
2023/03/04 18:40:27;;;;;;;10.90;7.13;;;;;;;7.67;47.46;98162.03;8445108;28;20227;-68
2023/03/04 18:44:30;;;;;;;16.13;8.60;;;;;;;7.51;47.30;98161.66;8444724;28;20231;-68
2023/03/04 18:48:36;;;;;;;15.30;7.77;;;;;;;7.57;47.19;98167.47;8445010;28;20235;-68
2023/03/04 18:52:38;;;;;;;14.80;7.40;;;;;;;7.72;47.30;98165.34;8444675;28;20570;-68
2023/03/04 18:56:45;;;;;;;11.67;7.57;;;;;;;7.20;48.25;98149.66;8410619;28;20228;-68
2023/03/04 19:00:48;;;;;;;15.67;8.07;;;;;;;7.38;47.49;98154.25;8412519;28;20233;-68
2023/03/04 19:04:52;;;;;;;15.43;8.17;;;;;;;7.43;47.83;98161.88;8418189;28;20295;-68
2023/03/04 19:08:55;;;;;;;15.47;8.23;;;;;;;7.66;47.23;98156.06;8417656;28;20231;-68
2023/03/04 19:12:59;;;;;;;14.67;8.50;;;;;;;7.58;46.97;98156.28;8417610;28;20247;-67